This is the latest recevied weather packets stored in our database for station/object K7MT-WX. If no packets are shown the sender has not sent any weather packets the latest 10 day(s).
| Time | Temp. | Humidity | Pressure | Rain* | Wind** | Luminosity | Snow |
|---|---|---|---|---|---|---|---|
| 1788536269 | 17.78° C | 51% | 1010.9 hPa | 0 mm | - | - | - |
| 1788535369 | 17.22° C | 54% | 1010.7 hPa | 0 mm | - | - | - |
| 1788534469 | 16.67° C | 55% | 1010.6 hPa | 0 mm | - | - | - |
| 1788533569 | 16.11° C | 57% | 1010.3 hPa | 0 mm | - | - | - |
| 1788532669 | 13.89° C | 63% | 1009.9 hPa | 0 mm | - | - | - |
| 1788531769 | 13.33° C | 64% | 1009.6 hPa | 0 mm | - | - | - |
| 1788530869 | 13.33° C | 66% | 1009 hPa | 0 mm | - | - | - |
| 1788529969 | 12.22° C | 68% | 1008.6 hPa | 0 mm | - | - | - |
| 1788529068 | 11.67° C | 68% | 1008 hPa | 0 mm | - | - | - |
| 1788528168 | 11.67° C | 71% | 1007.5 hPa | 0 mm | - | - | - |
| 1788527268 | 11.11° C | 73% | 1007.1 hPa | 0 mm | - | - | - |
| 1788526368 | 11.67° C | 71% | 1006.5 hPa | 0 mm | - | - | - |
| 1788525468 | 11.67° C | 70% | 1006.4 hPa | 0 mm | - | - | - |
| 1788524568 | 12.22° C | 69% | 1006.4 hPa | 0 mm | - | - | - |
| 1788523668 | 12.22° C | 69% | 1006.5 hPa | 0 mm | - | - | - |
| 1788522768 | 12.78° C | 66% | 1006.4 hPa | 0 mm | - | - | - |
| 1788521868 | 12.78° C | 65% | 1006.4 hPa | 0 mm | - | - | - |
| 1788520968 | 12.78° C | 64% | 1006.4 hPa | 0 mm | - | - | - |
| 1788520068 | 12.78° C | 64% | 1006.4 hPa | 0 mm | - | - | - |
| 1788519168 | 12.78° C | 64% | 1006.5 hPa | 0 mm | - | - | - |
| 1788518268 | 13.33° C | 63% | 1006.5 hPa | 0 mm | - | - | - |
| 1788517368 | 13.33° C | 62% | 1006.6 hPa | 0 mm | - | - | - |
| 1788516468 | 13.33° C | 61% | 1006.6 hPa | 0 mm | - | - | - |
| 1788515568 | 13.33° C | 61% | 1006.5 hPa | 0 mm | - | - | - |
| 1788514668 | 13.89° C | 59% | 1006.7 hPa | 0 mm | - | - | - |
* Rain latest hour (hover to see other rain measurements)
** Current wind speed in m/s (hover to see current wind gust speed)